Time;durP1;ratioP1;P1;durP2;ratioP2;P2;SDS_P1;SDS_P2;PMS_P1;PMS_P2;Temp;Humidity;BMP_temperature;BMP_pressure;BME280_temperature;BME280_humidity;BME280_pressure;Samples;Min_cycle;Max_cycle;Signal;HPM_P1;HPM_P2
2023/09/11 00:00:41;;;;;;;27.15;17.60;;;18.30;99.90;;;;;;5053502;28;20033;-78
2023/09/11 00:03:07;;;;;;;28.17;18.05;;;18.20;99.90;;;;;;5053084;28;20506;-77
2023/09/11 00:05:32;;;;;;;33.75;18.02;;;18.20;99.90;;;;;;5053798;28;20037;-78
2023/09/11 00:07:58;;;;;;;42.33;19.92;;;18.10;99.90;;;;;;5053452;28;20037;-78
2023/09/11 00:10:24;;;;;;;38.42;19.83;;;18.10;99.90;;;;;;5053807;28;20033;-78
2023/09/11 00:12:49;;;;;;;44.95;20.08;;;18.10;99.90;;;;;;5053450;28;20120;-78
2023/09/11 00:15:15;;;;;;;37.83;18.98;;;18.10;99.90;;;;;;5053364;28;20036;-78
2023/09/11 00:17:41;;;;;;;43.25;19.60;;;18.00;99.90;;;;;;5052471;28;20022;-78
2023/09/11 00:20:10;;;;;;;36.85;18.00;;;17.90;99.90;;;;;;5053496;28;20028;-78
2023/09/11 00:22:36;;;;;;;38.47;21.58;;;17.90;99.90;;;;;;5052429;28;20074;-78
2023/09/11 00:25:02;;;;;;;33.80;19.38;;;18.00;99.90;;;;;;5053244;28;20037;-78
2023/09/11 00:27:28;;;;;;;36.38;20.02;;;17.90;99.90;;;;;;5053633;28;20033;-78
2023/09/11 00:29:54;;;;;;;40.38;20.38;;;17.90;99.90;;;;;;5052401;28;20489;-78
2023/09/11 00:32:20;;;;;;;30.45;19.15;;;;;;;;;;5053348;28;20029;-77
2023/09/11 00:34:46;;;;;;;33.67;19.33;;;18.30;99.90;;;;;;5053089;28;20025;-77
2023/09/11 00:37:11;;;;;;;36.88;19.05;;;18.10;99.90;;;;;;5053306;28;20099;-78
2023/09/11 00:39:37;;;;;;;46.50;21.50;;;17.60;99.90;;;;;;5053060;28;20112;-77
2023/09/11 00:42:03;;;;;;;41.25;20.48;;;18.00;99.90;;;;;;5053040;28;20443;-77
2023/09/11 00:44:29;;;;;;;38.55;20.13;;;17.90;99.90;;;;;;5056392;28;20112;-77
2023/09/11 00:46:55;;;;;;;37.60;19.20;;;18.00;99.90;;;;;;5056964;28;20462;-77
2023/09/11 00:49:22;;;;;;;32.05;20.42;;;18.00;99.90;;;;;;5056792;28;20094;-77
2023/09/11 00:51:50;;;;;;;38.00;20.95;;;17.90;99.90;;;;;;5056923;28;20522;-77
2023/09/11 00:54:17;;;;;;;36.80;20.05;;;18.10;99.90;;;;;;5056624;28;20494;-77
2023/09/11 00:56:45;;;;;;;31.23;18.92;;;17.80;99.90;;;;;;5056610;28;20064;-78
2023/09/11 00:59:12;;;;;;;46.90;21.67;;;18.00;99.90;;;;;;5056239;28;20060;-77
2023/09/11 01:01:37;;;;;;;42.83;20.77;;;17.90;99.90;;;;;;5056569;28;20082;-78
2023/09/11 01:04:03;;;;;;;35.90;19.45;;;17.90;99.90;;;;;;5056659;28;20124;-77
2023/09/11 01:06:30;;;;;;;44.08;20.10;;;;;;;;;;5056499;28;20114;-79
2023/09/11 01:08:56;;;;;;;31.85;19.33;;;17.80;99.90;;;;;;5056501;28;20056;-78
2023/09/11 01:11:22;;;;;;;35.13;18.35;;;17.80;99.90;;;;;;5056270;28;20036;-77
2023/09/11 01:13:48;;;;;;;44.33;21.75;;;17.80;99.90;;;;;;5056916;28;20033;-77
2023/09/11 01:16:52;;;;;;;50.13;23.77;;;17.80;99.90;;;;;;5057452;28;20467;-77
2023/09/11 01:19:56;;;;;;;38.08;19.38;;;17.70;99.90;;;;;;5056650;28;20090;-77
2023/09/11 01:22:56;;;;;;;36.85;20.27;;;17.80;99.90;;;;;;5056643;28;20371;-77
2023/09/11 01:25:45;;;;;;;27.73;18.17;;;17.80;99.90;;;;;;5056054;28;20505;-77
2023/09/11 01:28:31;;;;;;;38.72;20.98;;;;;;;;;;5055110;28;20505;-78
2023/09/11 01:30:59;;;;;;;37.45;21.23;;;;;;;;;;5055627;28;20127;-78
2023/09/11 01:33:24;;;;;;;47.33;23.85;;;17.70;99.90;;;;;;5056095;28;20090;-77
2023/09/11 01:35:51;;;;;;;56.65;25.58;;;17.80;99.90;;;;;;5055264;28;20049;-78
2023/09/11 01:38:18;;;;;;;50.10;24.95;;;17.80;99.90;;;;;;5055558;28;20033;-78
2023/09/11 01:40:47;;;;;;;47.05;23.73;;;17.80;99.90;;;;;;5055618;28;20427;-77
2023/09/11 01:43:15;;;;;;;34.58;21.38;;;17.80;99.90;;;;;;5056054;28;20414;-77
2023/09/11 01:45:41;;;;;;;32.45;19.77;;;17.80;99.90;;;;;;5055714;28;20479;-78
2023/09/11 01:48:08;;;;;;;37.70;20.75;;;17.80;99.90;;;;;;5056056;28;20532;-78
2023/09/11 01:50:36;;;;;;;34.55;19.23;;;17.80;99.90;;;;;;5055541;28;20025;-77
2023/09/11 01:53:04;;;;;;;40.17;21.70;;;17.80;99.90;;;;;;5054945;28;20051;-77
2023/09/11 01:55:32;;;;;;;34.40;18.45;;;17.70;99.90;;;;;;5055066;28;20474;-77
2023/09/11 01:57:58;;;;;;;30.20;19.30;;;17.70;99.90;;;;;;5055144;28;20564;-77
2023/09/11 02:00:23;;;;;;;44.90;22.73;;;17.70;99.90;;;;;;5055835;28;20029;-78
2023/09/11 02:02:52;;;;;;;33.88;19.90;;;17.60;99.90;;;;;;5055408;28;20068;-78
2023/09/11 02:05:18;;;;;;;36.63;20.85;;;17.60;99.90;;;;;;5055338;28;20474;-77
2023/09/11 02:07:44;;;;;;;31.95;19.48;;;;;;;;;;5055201;28;20150;-77
2023/09/11 02:10:10;;;;;;;38.25;22.20;;;;;;;;;;5055613;28;20028;-77
2023/09/11 02:12:36;;;;;;;45.30;22.67;;;;;;;;;;5055446;28;20506;-77
2023/09/11 02:15:02;;;;;;;39.28;20.88;;;;;;;;;;5056218;28;20025;-77
2023/09/11 02:17:28;;;;;;;34.22;20.73;;;;;;;;;;5055939;28;20029;-77
2023/09/11 02:19:54;;;;;;;53.88;24.00;;;;;;;;;;5055983;28;20029;-77
2023/09/11 02:22:20;;;;;;;35.25;20.20;;;;;;;;;;5055286;28;20374;-77
2023/09/11 02:24:46;;;;;;;35.72;20.77;;;;;;;;;;5055149;28;20032;-78
2023/09/11 02:27:12;;;;;;;45.90;22.00;;;;;;;;;;5054282;28;20036;-77
2023/09/11 02:29:38;;;;;;;38.38;21.88;;;;;;;;;;5054934;28;20036;-77
2023/09/11 02:32:04;;;;;;;39.90;21.65;;;;;;;;;;5055005;28;20471;-77
2023/09/11 02:34:30;;;;;;;34.75;19.67;;;;;;;;;;5054671;28;20111;-77
2023/09/11 02:36:56;;;;;;;37.53;21.10;;;;;;;;;;5053680;28;20474;-77
2023/09/11 02:39:22;;;;;;;38.33;19.45;;;17.40;99.90;;;;;;5054638;28;20025;-78
2023/09/11 02:41:48;;;;;;;41.17;22.98;;;17.30;99.90;;;;;;5054817;28;20475;-77
2023/09/11 02:44:14;;;;;;;40.17;21.92;;;;;;;;;;5054601;28;20025;-77
2023/09/11 02:46:40;;;;;;;31.83;20.25;;;;;;;;;;5054125;28;20467;-77
2023/09/11 02:49:06;;;;;;;36.55;19.77;;;;;;;;;;5054546;28;20119;-78
2023/09/11 02:51:31;;;;;;;33.47;19.65;;;17.20;99.90;;;;;;5054799;28;20031;-78
2023/09/11 02:53:57;;;;;;;30.90;18.55;;;;;;;;;;5054641;28;20037;-79
2023/09/11 02:56:23;;;;;;;31.48;19.33;;;17.20;99.90;;;;;;5054248;28;20032;-77
2023/09/11 02:58:48;;;;;;;33.58;20.15;;;17.10;99.90;;;;;;5054549;28;20029;-77
2023/09/11 03:01:14;;;;;;;35.95;20.80;;;17.10;99.90;;;;;;5053362;28;20410;-77
2023/09/11 03:03:40;;;;;;;39.22;21.98;;;17.10;99.90;;;;;;5054628;28;20029;-77
2023/09/11 03:06:05;;;;;;;43.03;22.67;;;17.10;99.90;;;;;;5053884;28;20029;-78
2023/09/11 03:08:31;;;;;;;34.55;19.88;;;17.10;99.90;;;;;;5054171;28;20391;-78
2023/09/11 03:11:12;;;;;;;31.67;20.50;;;17.00;99.90;;;;;;5054126;28;20367;-77
2023/09/11 03:13:38;;;;;;;33.63;20.05;;;17.10;99.90;;;;;;5054133;28;20039;-77
2023/09/11 03:16:18;;;;;;;46.22;24.17;;;17.00;99.90;;;;;;5053885;28;20108;-77
2023/09/11 03:18:44;;;;;;;56.20;23.48;;;17.00;99.90;;;;;;5054290;28;20418;-77
2023/09/11 03:21:10;;;;;;;40.42;21.45;;;17.00;99.90;;;;;;5053985;28;20083;-77
2023/09/11 03:23:35;;;;;;;32.10;21.20;;;16.90;99.90;;;;;;5054338;28;20028;-78
2023/09/11 03:26:02;;;;;;;37.67;21.70;;;16.90;99.90;;;;;;5054185;28;20383;-77
2023/09/11 03:28:29;;;;;;;47.15;23.75;;;16.90;99.90;;;;;;5053976;28;20116;-77
2023/09/11 03:30:55;;;;;;;37.67;23.70;;;16.90;99.90;;;;;;5053851;28;20032;-77
2023/09/11 03:33:21;;;;;;;40.83;23.88;;;16.90;99.90;;;;;;5054059;28;20021;-77
2023/09/11 03:35:46;;;;;;;41.72;22.63;;;16.90;99.90;;;;;;5052848;28;20445;-78
2023/09/11 03:38:13;;;;;;;41.70;23.15;;;16.80;99.90;;;;;;5053386;28;20018;-77
2023/09/11 03:40:39;;;;;;;51.83;24.95;;;16.80;99.90;;;;;;5054086;28;20041;-77
2023/09/11 03:43:05;;;;;;;36.60;22.45;;;16.80;99.90;;;;;;5053798;28;20166;-77
2023/09/11 03:45:30;;;;;;;34.17;22.05;;;16.80;99.90;;;;;;5053611;28;20538;-77
2023/09/11 03:47:56;;;;;;;35.22;21.55;;;16.80;99.90;;;;;;5053139;28;20094;-77
2023/09/11 03:50:22;;;;;;;27.52;18.33;;;16.90;99.90;;;;;;5053883;28;20110;-78
2023/09/11 03:52:47;;;;;;;32.22;19.63;;;16.80;99.90;;;;;;5053732;28;20033;-77
2023/09/11 03:55:13;;;;;;;32.45;18.98;;;16.80;99.90;;;;;;5053803;28;20040;-76
2023/09/11 03:57:39;;;;;;;30.08;19.35;;;16.80;99.90;;;;;;5053500;28;20052;-76
2023/09/11 04:00:07;;;;;;;37.55;21.40;;;16.80;99.90;;;;;;5054304;28;20115;-77
2023/09/11 04:02:33;;;;;;;41.30;22.70;;;16.80;99.90;;;;;;5053687;28;20406;-77
2023/09/11 04:04:59;;;;;;;48.20;26.75;;;16.80;99.90;;;;;;5053447;28;20116;-77
2023/09/11 04:07:25;;;;;;;34.97;22.30;;;16.80;99.90;;;;;;5052919;28;20446;-77
2023/09/11 04:09:50;;;;;;;44.42;24.80;;;16.90;99.90;;;;;;5053103;28;20029;-77
2023/09/11 04:12:17;;;;;;;45.05;25.65;;;16.90;99.90;;;;;;5053323;28;20060;-77
2023/09/11 04:14:43;;;;;;;42.75;23.85;;;16.80;99.90;;;;;;5053819;28;20025;-77
2023/09/11 04:17:10;;;;;;;41.55;26.48;;;16.80;99.90;;;;;;5053476;28;20043;-77
2023/09/11 04:19:38;;;;;;;44.47;24.60;;;16.70;99.90;;;;;;5057043;28;20017;-77
2023/09/11 04:22:04;;;;;;;40.65;24.30;;;16.70;99.90;;;;;;5057614;28;20091;-77
2023/09/11 04:24:30;;;;;;;33.10;20.83;;;16.70;99.90;;;;;;5057502;28;20032;-77
2023/09/11 04:26:56;;;;;;;37.65;22.13;;;16.70;99.90;;;;;;5056599;28;20127;-77
2023/09/11 04:29:22;;;;;;;31.48;21.85;;;16.70;99.90;;;;;;5057041;28;20064;-77
2023/09/11 04:31:47;;;;;;;38.35;23.17;;;16.70;99.90;;;;;;5057056;28;20114;-77
2023/09/11 04:34:13;;;;;;;34.97;21.13;;;16.70;99.90;;;;;;5056997;28;20025;-77
2023/09/11 04:36:38;;;;;;;39.50;24.02;;;16.70;99.90;;;;;;5056305;28;20506;-77
2023/09/11 04:39:04;;;;;;;38.78;22.98;;;16.60;99.90;;;;;;5057116;28;20348;-77
2023/09/11 04:41:30;;;;;;;37.00;22.95;;;16.60;99.90;;;;;;5057012;28;20139;-77
2023/09/11 04:43:55;;;;;;;45.17;22.65;;;16.60;99.90;;;;;;5056799;28;20086;-77
2023/09/11 04:46:21;;;;;;;34.63;21.42;;;16.60;99.90;;;;;;5057063;28;20040;-77
2023/09/11 04:48:47;;;;;;;33.97;21.23;;;16.60;99.90;;;;;;5057165;28;20033;-77
2023/09/11 04:51:12;;;;;;;34.72;21.00;;;16.60;99.90;;;;;;5056694;28;20086;-77
2023/09/11 04:53:38;;;;;;;36.58;21.55;;;16.60;99.90;;;;;;5056548;28;20079;-77
2023/09/11 04:56:04;;;;;;;44.85;23.85;;;16.60;99.90;;;;;;5056772;28;20106;-77
2023/09/11 04:58:29;;;;;;;35.50;21.85;;;16.60;99.90;;;;;;5056468;28;20031;-77
2023/09/11 05:00:55;;;;;;;37.97;22.48;;;16.60;99.90;;;;;;5056453;28;20021;-77
2023/09/11 05:03:21;;;;;;;37.33;21.33;;;16.70;99.90;;;;;;5056560;28;20050;-77
2023/09/11 05:05:48;;;;;;;47.55;25.98;;;16.70;99.90;;;;;;5056224;28;20033;-77
2023/09/11 05:08:13;;;;;;;41.38;22.10;;;16.70;99.90;;;;;;5056752;28;20402;-77
2023/09/11 05:10:43;;;;;;;38.65;22.40;;;16.70;99.90;;;;;;5056478;28;20124;-77
2023/09/11 05:13:11;;;;;;;37.38;24.27;;;16.70;99.90;;;;;;5056427;28;20497;-77
2023/09/11 05:15:36;;;;;;;36.22;22.50;;;16.80;99.90;;;;;;5055855;28;20031;-77
2023/09/11 05:18:02;;;;;;;37.90;22.58;;;16.80;99.90;;;;;;5055652;28;20029;-77
2023/09/11 05:20:28;;;;;;;38.33;21.05;;;16.80;99.90;;;;;;5056261;28;20367;-78
2023/09/11 05:22:54;;;;;;;34.85;21.23;;;16.90;99.90;;;;;;5056026;28;20028;-78
2023/09/11 05:25:20;;;;;;;35.53;21.38;;;17.00;99.90;;;;;;5056365;28;20486;-77
2023/09/11 05:27:46;;;;;;;36.50;22.23;;;17.00;99.90;;;;;;5055883;28;20029;-78
2023/09/11 05:30:13;;;;;;;45.63;23.38;;;17.10;99.90;;;;;;5055596;28;20078;-77
2023/09/11 05:32:38;;;;;;;35.50;21.55;;;17.10;99.90;;;;;;5056325;28;20033;-78
2023/09/11 05:35:05;;;;;;;42.20;23.73;;;17.20;99.90;;;;;;5055311;28;20051;-77
2023/09/11 05:37:30;;;;;;;43.13;22.38;;;17.20;99.90;;;;;;5055603;28;20021;-78
2023/09/11 05:39:56;;;;;;;41.67;21.90;;;17.40;99.90;;;;;;5056069;28;20040;-78
2023/09/11 05:42:22;;;;;;;37.30;21.40;;;17.50;99.90;;;;;;5055146;28;20091;-78
2023/09/11 05:44:48;;;;;;;42.60;21.42;;;17.60;99.90;;;;;;5056146;28;20032;-78
2023/09/11 05:47:14;;;;;;;38.00;19.27;;;17.70;99.90;;;;;;5056043;28;20526;-78
2023/09/11 05:49:40;;;;;;;38.25;19.85;;;17.90;99.90;;;;;;5055928;28;20490;-78
2023/09/11 05:52:06;;;;;;;36.15;20.38;;;18.30;99.90;;;;;;5055930;28;20029;-78
2023/09/11 05:54:34;;;;;;;41.22;20.15;;;18.70;99.90;;;;;;5055607;28;20025;-77
2023/09/11 05:57:01;;;;;;;37.60;18.70;;;18.70;99.90;;;;;;5055274;28;20028;-77
2023/09/11 05:59:27;;;;;;;120.82;27.67;;;19.10;99.90;;;;;;5055030;28;20025;-78
2023/09/11 06:01:53;;;;;;;147.95;31.55;;;19.40;99.90;;;;;;5055856;28;20036;-77
2023/09/11 06:04:19;;;;;;;127.63;28.88;;;19.50;99.90;;;;;;5054623;28;20490;-78
2023/09/11 06:06:44;;;;;;;123.75;26.83;;;19.60;99.90;;;;;;5051336;28;20099;-77
2023/09/11 06:09:10;;;;;;;46.50;20.15;;;19.60;99.90;;;;;;5054392;28;20385;-77
2023/09/11 06:11:36;;;;;;;40.25;17.95;;;19.70;99.90;;;;;;5035956;28;20031;-76
2023/09/11 06:14:02;;;;;;;42.20;17.45;;;20.20;99.90;;;;;;5034442;28;20041;-77
2023/09/11 06:16:29;;;;;;;41.65;18.23;;;20.30;99.90;;;;;;5041361;28;20033;-76
2023/09/11 06:18:55;;;;;;;38.55;15.93;;;20.50;99.90;;;;;;5048426;28;20479;-77
2023/09/11 06:21:21;;;;;;;40.40;16.42;;;20.60;99.90;;;;;;5047839;28;20029;-77
2023/09/11 06:23:46;;;;;;;27.30;14.23;;;20.90;99.90;;;;;;5050300;28;20551;-78
2023/09/11 06:26:12;;;;;;;32.70;15.15;;;22.10;64.20;;;;;;5051749;28;20044;-78
2023/09/11 06:28:38;;;;;;;27.38;12.90;;;23.40;1.00;;;;;;5051229;28;20067;-78
2023/09/11 06:31:03;;;;;;;39.00;12.57;;;24.30;99.90;;;;;;5049635;28;20402;-78
2023/09/11 06:33:29;;;;;;;31.80;12.98;;;25.70;99.90;;;;;;5044225;28;20336;-78
2023/09/11 06:35:55;;;;;;;21.83;11.63;;;26.50;1.00;;;;;;5039974;28;20116;-78
2023/09/11 06:38:21;;;;;;;31.40;11.63;;;27.40;99.90;;;;;;5041586;28;20770;-78
2023/09/11 06:40:47;;;;;;;28.48;11.55;;;28.30;1.00;;;;;;5035975;28;20025;-79
2023/09/11 06:43:13;;;;;;;26.85;11.13;;;28.60;79.20;;;;;;5042043;28;20028;-73
2023/09/11 06:45:41;;;;;;;31.40;11.27;;;28.90;11.00;;;;;;5042465;28;20124;-74
2023/09/11 06:48:10;;;;;;;27.52;11.30;;;28.60;1.00;;;;;;5042269;28;20479;-73
2023/09/11 06:50:35;;;;;;;22.90;10.75;;;28.10;99.90;;;;;;5046748;28;20029;-73
2023/09/11 06:53:01;;;;;;;25.92;10.85;;;27.60;99.90;;;;;;5039453;28;20025;-74
2023/09/11 06:55:28;;;;;;;26.23;10.75;;;27.90;99.90;;;;;;5037260;28;20025;-75
2023/09/11 06:57:56;;;;;;;32.13;10.90;;;28.00;1.00;;;;;;5033415;28;20501;-72
2023/09/11 07:00:22;;;;;;;28.50;11.68;;;28.40;1.00;;;;;;5046393;28;20758;-74
2023/09/11 07:02:48;;;;;;;24.40;10.30;;;28.60;1.00;;;;;;5042700;28;20021;-74
2023/09/11 07:05:16;;;;;;;31.08;11.05;;;28.70;99.90;;;;;;5040138;28;20029;-73
2023/09/11 07:07:42;;;;;;;24.95;10.38;;;;;;;;;;5040940;28;20060;-71
2023/09/11 07:10:11;;;;;;;29.98;9.50;;;29.80;99.90;;;;;;5047081;28;20025;-74
2023/09/11 07:12:37;;;;;;;25.42;9.60;;;29.40;99.90;;;;;;5045204;28;20506;-74
2023/09/11 07:15:04;;;;;;;25.48;10.23;;;;;;;;;;5042632;28;20030;-71
2023/09/11 07:17:29;;;;;;;33.15;10.48;;;29.70;44.20;;;;;;5044034;28;20037;-73
2023/09/11 07:19:55;;;;;;;21.95;9.32;;;29.20;99.90;;;;;;5046884;28;20032;-74
2023/09/11 07:22:21;;;;;;;21.48;8.95;;;29.80;99.90;;;;;;5050128;28;20037;-74
2023/09/11 07:24:46;;;;;;;29.33;9.13;;;30.70;1.00;;;;;;5051650;28;20024;-75
2023/09/11 07:27:12;;;;;;;25.10;9.10;;;30.60;1.00;;;;;;5049474;28;20028;-75
2023/09/11 07:29:38;;;;;;;21.42;8.52;;;;;;;;;;5038070;28;20391;-75
2023/09/11 07:32:04;;;;;;;22.50;8.80;;;32.10;99.90;;;;;;5047605;28;20033;-74
2023/09/11 07:34:30;;;;;;;23.25;8.88;;;31.00;99.90;;;;;;5051209;28;20033;-74
2023/09/11 07:36:55;;;;;;;27.20;9.35;;;32.10;99.90;;;;;;5051329;28;20052;-71
2023/09/11 07:39:22;;;;;;;20.77;8.38;;;32.10;99.90;;;;;;5052565;28;20063;-74
2023/09/11 07:41:48;;;;;;;22.45;8.65;;;32.30;99.90;;;;;;5039531;28;20506;-74
2023/09/11 07:44:14;;;;;;;19.52;7.95;;;32.40;99.90;;;;;;5045990;28;20033;-74
2023/09/11 07:46:39;;;;;;;23.15;9.65;;;32.80;99.90;;;;;;5042484;28;20034;-74
2023/09/11 07:49:05;;;;;;;21.92;8.98;;;31.30;99.90;;;;;;5048009;28;20496;-75
2023/09/11 07:51:31;;;;;;;21.77;8.20;;;30.60;99.90;;;;;;5044573;28;20032;-80
2023/09/11 07:53:58;;;;;;;21.35;8.88;;;30.60;1.00;;;;;;5036053;28;20032;-80
2023/09/11 07:56:24;;;;;;;31.25;9.30;;;31.00;99.90;;;;;;5034334;28;20079;-78
2023/09/11 07:58:50;;;;;;;30.20;9.57;;;30.40;1.00;;;;;;5034586;28;21427;-80
2023/09/11 08:01:18;;;;;;;25.17;9.00;;;30.80;99.90;;;;;;5036105;28;20064;-78
2023/09/11 08:03:45;;;;;;;23.33;8.75;;;31.20;99.90;;;;;;5040949;28;20033;-80
2023/09/11 08:06:11;;;;;;;23.77;8.55;;;31.60;99.90;;;;;;5037118;28;20499;-79
2023/09/11 08:08:37;;;;;;;24.50;9.00;;;31.20;99.90;;;;;;5035837;28;20029;-78
2023/09/11 08:11:19;;;;;;;21.42;9.15;;;31.40;99.90;;;;;;5017948;28;20042;-79
2023/09/11 08:13:46;;;;;;;22.30;9.18;;;31.60;99.90;;;;;;5030375;28;20038;-79
2023/09/11 08:16:12;;;;;;;24.85;9.27;;;31.10;99.90;;;;;;5028397;28;20041;-78
2023/09/11 08:18:38;;;;;;;28.38;9.10;;;30.60;99.90;;;;;;5026467;28;20087;-80
2023/09/11 08:21:04;;;;;;;25.45;9.68;;;30.90;99.90;;;;;;5032314;28;20034;-74
2023/09/11 08:23:30;;;;;;;25.27;9.18;;;30.80;99.90;;;;;;5031645;28;20030;-74
2023/09/11 08:25:57;;;;;;;19.45;8.60;;;30.80;99.90;;;;;;5034635;28;20048;-73
2023/09/11 08:28:22;;;;;;;24.00;8.70;;;30.80;99.90;;;;;;5036017;28;20401;-75
2023/09/11 08:30:50;;;;;;;25.90;9.23;;;31.00;99.90;;;;;;5031008;28;20041;-74
2023/09/11 08:33:16;;;;;;;19.55;8.07;;;31.00;99.90;;;;;;5034880;28;20104;-73
2023/09/11 08:35:43;;;;;;;23.63;8.32;;;31.60;99.90;;;;;;5023574;28;20046;-75
2023/09/11 08:38:09;;;;;;;27.92;8.45;;;32.10;99.90;;;;;;5019955;28;20494;-75
2023/09/11 08:40:35;;;;;;;22.48;8.23;;;32.30;99.90;;;;;;5032857;28;20038;-74
2023/09/11 08:43:02;;;;;;;18.55;7.97;;;31.80;99.90;;;;;;5024363;28;20112;-74
2023/09/11 08:45:28;;;;;;;22.33;8.13;;;31.30;99.90;;;;;;5029539;28;20116;-74
2023/09/11 08:47:56;;;;;;;21.10;7.95;;;31.70;99.90;;;;;;5026056;28;20061;-79
2023/09/11 08:50:27;;;;;;;23.25;7.40;;;32.20;99.90;;;;;;5035992;28;20502;-81
2023/09/11 08:52:55;;;;;;;19.45;8.02;;;32.50;99.90;;;;;;5034993;28;20025;-79
2023/09/11 08:55:23;;;;;;;22.17;8.07;;;32.40;99.90;;;;;;5024315;28;20080;-80
2023/09/11 08:57:49;;;;;;;19.42;7.40;;;32.30;99.90;;;;;;5029670;28;20398;-78
2023/09/11 09:00:16;;;;;;;19.95;7.78;;;31.90;99.90;;;;;;5032261;28;20030;-80
2023/09/11 09:02:43;;;;;;;17.08;7.38;;;31.90;99.90;;;;;;5033751;28;20091;-80
2023/09/11 09:05:10;;;;;;;19.48;7.22;;;32.30;99.90;;;;;;5023802;28;20075;-80
2023/09/11 09:07:37;;;;;;;16.58;7.55;;;32.10;99.90;;;;;;5036869;28;20021;-80
2023/09/11 09:10:04;;;;;;;20.42;7.40;;;32.40;99.90;;;;;;5030614;28;20116;-79
2023/09/11 09:12:30;;;;;;;23.70;7.47;;;32.10;99.90;;;;;;5031448;28;20475;-77
2023/09/11 09:14:56;;;;;;;18.60;8.07;;;32.00;99.90;;;;;;5026567;28;20047;-78
2023/09/11 09:17:22;;;;;;;15.90;7.40;;;31.60;99.90;;;;;;5024530;28;20111;-77
2023/09/11 09:19:48;;;;;;;22.27;7.25;;;32.30;99.90;;;;;;5017259;28;20076;-77
2023/09/11 09:22:14;;;;;;;20.25;7.20;;;32.80;99.90;;;;;;5022429;28;20029;-78
2023/09/11 09:24:55;;;;;;;17.58;6.50;;;33.20;99.90;;;;;;5034499;28;20112;-78
2023/09/11 09:27:24;;;;;;;17.00;7.43;;;33.10;99.90;;;;;;5044037;28;20036;-78
2023/09/11 09:29:50;;;;;;;17.67;6.65;;;33.00;99.90;;;;;;5031619;28;20044;-77
2023/09/11 09:32:16;;;;;;;23.42;7.10;;;33.80;99.90;;;;;;5027765;28;20038;-79
2023/09/11 09:34:54;;;;;;;18.90;7.43;;;33.30;99.90;;;;;;5029776;28;20071;-77
2023/09/11 09:37:21;;;;;;;21.92;7.07;;;33.60;99.90;;;;;;5035532;28;20069;-78
2023/09/11 09:39:48;;;;;;;18.25;7.18;;;33.30;99.90;;;;;;5032995;28;20383;-78
2023/09/11 09:42:15;;;;;;;19.20;6.95;;;33.10;99.90;;;;;;5015592;28;20041;-79
2023/09/11 09:44:43;;;;;;;17.17;7.03;;;33.10;99.90;;;;;;5036850;28;20041;-77
2023/09/11 09:47:13;;;;;;;17.60;6.90;;;32.90;99.90;;;;;;5026650;28;20034;-78
2023/09/11 09:49:56;;;;;;;15.98;6.63;;;33.40;99.90;;;;;;5028006;28;20032;-78
2023/09/11 09:52:25;;;;;;;17.38;6.93;;;33.70;99.90;;;;;;5027081;28;20115;-77
2023/09/11 09:54:55;;;;;;;13.60;6.80;;;34.10;99.90;;;;;;5023248;28;20067;-79
2023/09/11 09:57:22;;;;;;;16.50;6.57;;;34.00;83.50;;;;;;5026288;28;20068;-78
2023/09/11 09:59:50;;;;;;;16.30;6.65;;;33.80;88.90;;;;;;5034950;28;20029;-78
2023/09/11 10:02:26;;;;;;;14.77;6.88;;;34.30;91.20;;;;;;5035601;28;20032;-79
2023/09/11 10:04:54;;;;;;;18.55;6.90;;;34.50;93.70;;;;;;5015078;28;20053;-79
2023/09/11 10:07:43;;;;;;;13.85;6.57;;;35.30;99.90;;;;;;5031157;28;20052;-78
2023/09/11 10:10:26;;;;;;;18.23;6.88;;;34.60;99.90;;;;;;5032674;28;20025;-78
2023/09/11 10:15:40;;;;;;;15.32;6.13;;;35.10;99.90;;;;;;5089163;27;20425;-78
2023/09/11 10:18:09;;;;;;;18.17;6.43;;;34.60;91.40;;;;;;5089831;28;20032;-77
2023/09/11 10:20:35;;;;;;;14.15;6.60;;;34.90;79.10;;;;;;5089629;28;20155;-77
2023/09/11 10:23:03;;;;;;;15.73;6.88;;;34.90;52.90;;;;;;5088533;28;20029;-77
2023/09/11 10:25:33;;;;;;;14.73;6.15;;;34.50;21.30;;;;;;5090661;28;20032;-77
2023/09/11 10:28:04;;;;;;;14.88;6.40;;;33.80;87.10;;;;;;5090942;28;20085;-76
2023/09/11 10:30:45;;;;;;;14.60;6.85;;;33.80;90.80;;;;;;5089859;28;20066;-73
2023/09/11 10:33:21;;;;;;;14.63;6.30;;;33.60;78.00;;;;;;5087732;28;20024;-73
2023/09/11 10:35:51;;;;;;;17.70;6.32;;;33.50;99.90;;;;;;5086425;28;20066;-74
2023/09/11 10:38:18;;;;;;;17.10;6.40;;;33.60;99.90;;;;;;5089339;28;20032;-74
2023/09/11 10:40:44;;;;;;;14.93;5.70;;;34.00;99.90;;;;;;5088305;28;20482;-74
2023/09/11 10:43:11;;;;;;;16.70;6.50;;;34.00;99.90;;;;;;5088199;28;20039;-74
2023/09/11 10:45:37;;;;;;;10.98;6.15;;;34.00;99.90;;;;;;5088578;28;20031;-74
2023/09/11 10:48:03;;;;;;;15.60;6.55;;;34.50;99.90;;;;;;5088303;28;20025;-74
2023/09/11 10:50:38;;;;;;;14.98;6.43;;;34.20;96.40;;;;;;5082154;28;20047;-73
2023/09/11 10:53:06;;;;;;;15.68;6.18;;;34.30;91.50;;;;;;5086204;28;20028;-74
2023/09/11 10:55:32;;;;;;;16.00;6.35;;;34.50;99.90;;;;;;5088852;28;20119;-74
2023/09/11 10:57:58;;;;;;;11.25;6.45;;;34.20;99.90;;;;;;5089012;28;20024;-74
2023/09/11 11:00:26;;;;;;;18.15;6.72;;;34.10;97.20;;;;;;5087229;28;20028;-73
2023/09/11 11:02:53;;;;;;;15.00;6.40;;;34.20;73.90;;;;;;5087640;28;20032;-74
2023/09/11 11:05:19;;;;;;;15.65;6.38;;;34.00;47.50;;;;;;5085880;28;20123;-74
2023/09/11 11:07:49;;;;;;;14.52;5.95;;;33.70;99.90;;;;;;5086928;28;20135;-73
2023/09/11 11:10:16;;;;;;;9.95;5.47;;;34.00;99.90;;;;;;5085894;28;20032;-73
2023/09/11 11:12:44;;;;;;;13.20;5.75;;;34.00;99.90;;;;;;5086097;28;20034;-74
2023/09/11 11:15:25;;;;;;;19.65;6.72;;;33.70;99.90;;;;;;5087659;28;20036;-74
2023/09/11 11:18:25;;;;;;;19.98;6.70;;;33.20;99.90;;;;;;5086927;28;20485;-75
2023/09/11 11:21:08;;;;;;;12.82;6.55;;;33.30;99.90;;;;;;5088243;28;20103;-74
2023/09/11 11:23:51;;;;;;;18.95;6.07;;;33.30;99.90;;;;;;5086070;28;20574;-74
2023/09/11 11:26:17;;;;;;;14.10;6.25;;;33.50;99.90;;;;;;5077584;28;20386;-74
2023/09/11 11:28:45;;;;;;;16.27;6.15;;;33.40;99.90;;;;;;5074214;28;20036;-74
2023/09/11 11:31:16;;;;;;;16.13;6.25;;;33.30;99.90;;;;;;5073518;28;20081;-74
2023/09/11 11:33:45;;;;;;;14.88;5.93;;;33.00;99.90;;;;;;5082169;28;20039;-73
2023/09/11 11:36:12;;;;;;;17.80;6.35;;;33.10;99.90;;;;;;5074419;28;20020;-74
2023/09/11 11:38:39;;;;;;;16.63;6.65;;;32.70;99.90;;;;;;5076380;28;20481;-74
2023/09/11 11:41:08;;;;;;;13.90;5.85;;;32.60;99.90;;;;;;5071731;28;20059;-73
2023/09/11 11:43:34;;;;;;;15.25;5.88;;;32.50;99.90;;;;;;5082297;28;20040;-74
2023/09/11 11:46:00;;;;;;;17.40;5.90;;;32.70;99.90;;;;;;5073609;28;20028;-73
2023/09/11 11:48:27;;;;;;;13.05;5.78;;;32.80;99.90;;;;;;5057130;28;20072;-74
2023/09/11 11:50:55;;;;;;;14.25;6.03;;;32.80;99.90;;;;;;5073935;28;20035;-74
2023/09/11 11:53:23;;;;;;;14.05;5.68;;;32.90;99.90;;;;;;5077691;28;20050;-74
2023/09/11 11:55:50;;;;;;;20.00;6.68;;;33.00;99.90;;;;;;5074615;28;20028;-74
2023/09/11 11:58:16;;;;;;;14.98;6.05;;;33.10;99.90;;;;;;5077166;28;20025;-74
2023/09/11 12:00:59;;;;;;;18.42;6.75;;;32.80;99.90;;;;;;5073812;28;20044;-74
2023/09/11 12:03:26;;;;;;;;;;;32.80;99.90;;;;;;5076567;28;20033;-74
2023/09/11 12:05:52;;;;;;;18.73;6.60;;;32.70;99.90;;;;;;5073274;28;20342;-73
2023/09/11 12:08:17;;;;;;;17.40;6.13;;;32.50;99.90;;;;;;5075202;28;20036;-73
2023/09/11 12:10:48;;;;;;;16.67;6.20;;;32.50;77.20;;;;;;5075662;28;20036;-73
2023/09/11 12:13:15;;;;;;;12.77;6.63;;;32.80;70.60;;;;;;5074278;28;20449;-73
2023/09/11 12:15:41;;;;;;;15.05;6.40;;;33.10;83.10;;;;;;5075196;28;20494;-74
2023/09/11 12:18:07;;;;;;;18.52;6.07;;;33.30;65.10;;;;;;5075518;28;20021;-74
2023/09/11 12:20:32;;;;;;;13.98;5.50;;;32.80;47.40;;;;;;5074837;28;20029;-73
2023/09/11 12:23:01;;;;;;;15.32;5.97;;;32.60;22.90;;;;;;5076611;28;20454;-74
2023/09/11 12:25:27;;;;;;;15.73;6.43;;;32.70;17.80;;;;;;5076893;28;20486;-73
2023/09/11 12:27:57;;;;;;;16.88;6.60;;;32.40;17.20;;;;;;5074112;28;20031;-73
2023/09/11 12:30:23;;;;;;;14.77;6.25;;;32.70;23.40;;;;;;5071107;28;20036;-74
2023/09/11 12:32:49;;;;;;;14.73;6.68;;;32.90;54.60;;;;;;5074112;28;20047;-74
2023/09/11 12:35:31;;;;;;;19.48;6.47;;;32.90;72.40;;;;;;5064961;28;20482;-74
2023/09/11 12:37:59;;;;;;;17.15;7.10;;;32.90;73.30;;;;;;5071031;28;20044;-73
2023/09/11 12:40:28;;;;;;;17.15;7.30;;;33.00;58.90;;;;;;5066505;28;20028;-73
2023/09/11 12:42:54;;;;;;;22.00;7.05;;;33.00;34.90;;;;;;5072480;28;20107;-74
2023/09/11 12:45:20;;;;;;;19.67;6.43;;;32.40;86.90;;;;;;5074667;28;20043;-74